sensor_id;sensor_type;location;lat;lon;timestamp;P1;durP1;ratioP1;P2;durP2;ratioP2
5507;SDS011;2776;51.046;6.772;2023-02-28T00:00:47;1.67;;;1.50;;
5507;SDS011;2776;51.046;6.772;2023-02-28T00:03:14;2.07;;;1.40;;
5507;SDS011;2776;51.046;6.772;2023-02-28T00:05:41;2.70;;;1.47;;
5507;SDS011;2776;51.046;6.772;2023-02-28T00:08:08;3.47;;;1.57;;
5507;SDS011;2776;51.046;6.772;2023-02-28T00:10:35;2.13;;;1.30;;
5507;SDS011;2776;51.046;6.772;2023-02-28T00:13:04;5.77;;;2.10;;
5507;SDS011;2776;51.046;6.772;2023-02-28T00:15:32;4.13;;;2.00;;
5507;SDS011;2776;51.046;6.772;2023-02-28T00:17:59;2.77;;;1.70;;
5507;SDS011;2776;51.046;6.772;2023-02-28T00:20:25;2.70;;;2.00;;
5507;SDS011;2776;51.046;6.772;2023-02-28T00:22:53;2.80;;;1.60;;
5507;SDS011;2776;51.046;6.772;2023-02-28T00:25:20;3.17;;;1.80;;
5507;SDS011;2776;51.046;6.772;2023-02-28T00:27:48;2.60;;;1.70;;
5507;SDS011;2776;51.046;6.772;2023-02-28T00:32:45;3.13;;;1.80;;
5507;SDS011;2776;51.046;6.772;2023-02-28T00:35:12;2.50;;;2.00;;
5507;SDS011;2776;51.046;6.772;2023-02-28T00:37:40;3.53;;;1.73;;
5507;SDS011;2776;51.046;6.772;2023-02-28T00:40:07;2.20;;;1.70;;
5507;SDS011;2776;51.046;6.772;2023-02-28T00:42:36;4.13;;;2.13;;
5507;SDS011;2776;51.046;6.772;2023-02-28T00:45:03;2.90;;;1.83;;
5507;SDS011;2776;51.046;6.772;2023-02-28T00:47:32;1.67;;;1.57;;
5507;SDS011;2776;51.046;6.772;2023-02-28T00:49:59;2.63;;;1.90;;
5507;SDS011;2776;51.046;6.772;2023-02-28T00:52:26;3.50;;;1.70;;
5507;SDS011;2776;51.046;6.772;2023-02-28T00:54:53;3.80;;;1.70;;
5507;SDS011;2776;51.046;6.772;2023-02-28T00:57:20;1.97;;;1.60;;
5507;SDS011;2776;51.046;6.772;2023-02-28T00:59:47;3.10;;;1.80;;
5507;SDS011;2776;51.046;6.772;2023-02-28T01:02:14;1.70;;;1.60;;
5507;SDS011;2776;51.046;6.772;2023-02-28T01:04:42;2.20;;;1.80;;
5507;SDS011;2776;51.046;6.772;2023-02-28T01:07:08;3.03;;;1.97;;
5507;SDS011;2776;51.046;6.772;2023-02-28T01:09:35;3.30;;;1.70;;
5507;SDS011;2776;51.046;6.772;2023-02-28T01:12:02;2.70;;;2.13;;
5507;SDS011;2776;51.046;6.772;2023-02-28T01:14:29;2.97;;;2.07;;
5507;SDS011;2776;51.046;6.772;2023-02-28T01:16:56;3.83;;;1.90;;
5507;SDS011;2776;51.046;6.772;2023-02-28T01:19:23;2.37;;;1.57;;
5507;SDS011;2776;51.046;6.772;2023-02-28T01:21:51;3.73;;;1.97;;
5507;SDS011;2776;51.046;6.772;2023-02-28T01:24:17;2.17;;;1.80;;
5507;SDS011;2776;51.046;6.772;2023-02-28T01:26:44;2.20;;;1.50;;
5507;SDS011;2776;51.046;6.772;2023-02-28T01:29:11;2.97;;;1.90;;
5507;SDS011;2776;51.046;6.772;2023-02-28T01:31:37;3.00;;;2.03;;
5507;SDS011;2776;51.046;6.772;2023-02-28T01:34:04;2.60;;;1.70;;
5507;SDS011;2776;51.046;6.772;2023-02-28T01:36:31;4.33;;;1.90;;
5507;SDS011;2776;51.046;6.772;2023-02-28T01:38:59;2.20;;;1.70;;
5507;SDS011;2776;51.046;6.772;2023-02-28T01:41:27;3.33;;;1.73;;
5507;SDS011;2776;51.046;6.772;2023-02-28T01:43:59;3.73;;;1.80;;
5507;SDS011;2776;51.046;6.772;2023-02-28T01:46:29;3.03;;;1.50;;
5507;SDS011;2776;51.046;6.772;2023-02-28T01:48:58;2.10;;;1.80;;
5507;SDS011;2776;51.046;6.772;2023-02-28T01:51:29;2.90;;;2.13;;
5507;SDS011;2776;51.046;6.772;2023-02-28T01:54:02;2.00;;;1.77;;
5507;SDS011;2776;51.046;6.772;2023-02-28T01:56:38;3.90;;;1.77;;
5507;SDS011;2776;51.046;6.772;2023-02-28T01:59:07;1.97;;;1.70;;
5507;SDS011;2776;51.046;6.772;2023-02-28T02:01:35;3.63;;;1.80;;
5507;SDS011;2776;51.046;6.772;2023-02-28T02:04:02;2.97;;;1.70;;
5507;SDS011;2776;51.046;6.772;2023-02-28T02:06:30;2.00;;;1.77;;
5507;SDS011;2776;51.046;6.772;2023-02-28T02:09:02;4.80;;;1.80;;
5507;SDS011;2776;51.046;6.772;2023-02-28T02:11:29;4.87;;;1.90;;
5507;SDS011;2776;51.046;6.772;2023-02-28T02:17:00;2.13;;;1.60;;
5507;SDS011;2776;51.046;6.772;2023-02-28T02:22:46;2.70;;;1.90;;
5507;SDS011;2776;51.046;6.772;2023-02-28T02:25:36;1.30;;;1.20;;
5507;SDS011;2776;51.046;6.772;2023-02-28T02:37:15;1.63;;;1.33;;
5507;SDS011;2776;51.046;6.772;2023-02-28T02:39:54;2.97;;;1.40;;
5507;SDS011;2776;51.046;6.772;2023-02-28T02:42:29;2.00;;;1.50;;
5507;SDS011;2776;51.046;6.772;2023-02-28T02:45:03;1.60;;;1.20;;
5507;SDS011;2776;51.046;6.772;2023-02-28T02:47:35;3.03;;;1.50;;
5507;SDS011;2776;51.046;6.772;2023-02-28T02:50:07;2.90;;;1.40;;
5507;SDS011;2776;51.046;6.772;2023-02-28T02:52:39;1.63;;;1.10;;
5507;SDS011;2776;51.046;6.772;2023-02-28T02:55:10;1.40;;;1.30;;
5507;SDS011;2776;51.046;6.772;2023-02-28T02:57:40;2.50;;;1.50;;
5507;SDS011;2776;51.046;6.772;2023-02-28T03:00:11;2.70;;;1.50;;
5507;SDS011;2776;51.046;6.772;2023-02-28T03:02:40;3.00;;;1.37;;
5507;SDS011;2776;51.046;6.772;2023-02-28T03:05:12;1.90;;;1.43;;
5507;SDS011;2776;51.046;6.772;2023-02-28T03:07:43;2.27;;;1.43;;
5507;SDS011;2776;51.046;6.772;2023-02-28T03:13:03;2.20;;;1.53;;
5507;SDS011;2776;51.046;6.772;2023-02-28T03:15:40;2.30;;;1.50;;
5507;SDS011;2776;51.046;6.772;2023-02-28T03:18:13;2.07;;;1.57;;
5507;SDS011;2776;51.046;6.772;2023-02-28T03:20:52;2.87;;;2.00;;
5507;SDS011;2776;51.046;6.772;2023-02-28T03:23:27;1.53;;;1.43;;
5507;SDS011;2776;51.046;6.772;2023-02-28T03:26:02;2.30;;;2.10;;
5507;SDS011;2776;51.046;6.772;2023-02-28T03:28:32;2.50;;;2.30;;
5507;SDS011;2776;51.046;6.772;2023-02-28T03:31:06;2.93;;;1.87;;
5507;SDS011;2776;51.046;6.772;2023-02-28T03:33:42;3.60;;;2.03;;
5507;SDS011;2776;51.046;6.772;2023-02-28T03:36:21;5.77;;;2.57;;
5507;SDS011;2776;51.046;6.772;2023-02-28T03:38:53;2.33;;;2.03;;
5507;SDS011;2776;51.046;6.772;2023-02-28T03:41:27;4.40;;;2.37;;
5507;SDS011;2776;51.046;6.772;2023-02-28T03:43:59;4.17;;;2.60;;
5507;SDS011;2776;51.046;6.772;2023-02-28T03:46:30;3.20;;;2.30;;
5507;SDS011;2776;51.046;6.772;2023-02-28T03:49:01;4.43;;;2.77;;
5507;SDS011;2776;51.046;6.772;2023-02-28T03:51:33;3.20;;;2.80;;
5507;SDS011;2776;51.046;6.772;2023-02-28T03:54:02;4.47;;;2.90;;
5507;SDS011;2776;51.046;6.772;2023-02-28T03:56:36;4.47;;;3.30;;
5507;SDS011;2776;51.046;6.772;2023-02-28T03:59:06;5.53;;;3.07;;
5507;SDS011;2776;51.046;6.772;2023-02-28T04:01:40;3.77;;;3.13;;
5507;SDS011;2776;51.046;6.772;2023-02-28T04:04:09;3.27;;;2.87;;
5507;SDS011;2776;51.046;6.772;2023-02-28T04:06:38;5.17;;;3.33;;
5507;SDS011;2776;51.046;6.772;2023-02-28T04:09:06;4.50;;;3.13;;
5507;SDS011;2776;51.046;6.772;2023-02-28T04:11:35;4.13;;;3.00;;
5507;SDS011;2776;51.046;6.772;2023-02-28T04:14:03;5.30;;;3.00;;
5507;SDS011;2776;51.046;6.772;2023-02-28T04:16:32;7.97;;;3.13;;
5507;SDS011;2776;51.046;6.772;2023-02-28T04:19:00;5.63;;;3.50;;
5507;SDS011;2776;51.046;6.772;2023-02-28T04:21:28;4.20;;;3.70;;
5507;SDS011;2776;51.046;6.772;2023-02-28T04:23:56;6.07;;;3.60;;
5507;SDS011;2776;51.046;6.772;2023-02-28T04:26:25;4.37;;;3.30;;
5507;SDS011;2776;51.046;6.772;2023-02-28T04:28:54;5.27;;;3.80;;
5507;SDS011;2776;51.046;6.772;2023-02-28T04:31:21;5.23;;;3.63;;
5507;SDS011;2776;51.046;6.772;2023-02-28T04:33:48;4.43;;;3.67;;
5507;SDS011;2776;51.046;6.772;2023-02-28T04:36:14;4.73;;;3.60;;
5507;SDS011;2776;51.046;6.772;2023-02-28T04:38:43;3.70;;;3.07;;
5507;SDS011;2776;51.046;6.772;2023-02-28T04:41:12;4.60;;;3.73;;
5507;SDS011;2776;51.046;6.772;2023-02-28T04:43:39;6.30;;;3.57;;
5507;SDS011;2776;51.046;6.772;2023-02-28T04:46:06;6.43;;;3.27;;
5507;SDS011;2776;51.046;6.772;2023-02-28T04:48:35;6.73;;;3.47;;
5507;SDS011;2776;51.046;6.772;2023-02-28T04:51:04;3.93;;;2.83;;
5507;SDS011;2776;51.046;6.772;2023-02-28T04:53:32;5.70;;;3.27;;
5507;SDS011;2776;51.046;6.772;2023-02-28T04:55:59;3.20;;;2.73;;
5507;SDS011;2776;51.046;6.772;2023-02-28T04:58:28;3.63;;;2.70;;
5507;SDS011;2776;51.046;6.772;2023-02-28T05:00:55;4.60;;;3.37;;
5507;SDS011;2776;51.046;6.772;2023-02-28T05:03:27;3.57;;;2.87;;
5507;SDS011;2776;51.046;6.772;2023-02-28T05:05:54;7.33;;;3.40;;
5507;SDS011;2776;51.046;6.772;2023-02-28T05:08:21;4.93;;;3.20;;
5507;SDS011;2776;51.046;6.772;2023-02-28T05:10:48;5.37;;;4.13;;
5507;SDS011;2776;51.046;6.772;2023-02-28T05:13:15;5.53;;;3.00;;
5507;SDS011;2776;51.046;6.772;2023-02-28T05:15:43;4.03;;;3.03;;
5507;SDS011;2776;51.046;6.772;2023-02-28T05:18:10;4.10;;;2.87;;
5507;SDS011;2776;51.046;6.772;2023-02-28T05:20:36;2.83;;;2.40;;
5507;SDS011;2776;51.046;6.772;2023-02-28T05:23:03;4.17;;;2.60;;
5507;SDS011;2776;51.046;6.772;2023-02-28T05:25:30;4.17;;;2.80;;
5507;SDS011;2776;51.046;6.772;2023-02-28T05:27:57;3.97;;;2.47;;
5507;SDS011;2776;51.046;6.772;2023-02-28T05:30:24;5.40;;;2.47;;
5507;SDS011;2776;51.046;6.772;2023-02-28T05:32:52;4.20;;;2.60;;
5507;SDS011;2776;51.046;6.772;2023-02-28T05:35:18;2.57;;;2.33;;
5507;SDS011;2776;51.046;6.772;2023-02-28T05:37:45;3.93;;;2.77;;
5507;SDS011;2776;51.046;6.772;2023-02-28T05:40:12;4.83;;;2.27;;
5507;SDS011;2776;51.046;6.772;2023-02-28T05:42:40;2.93;;;2.63;;
5507;SDS011;2776;51.046;6.772;2023-02-28T05:45:07;3.17;;;2.30;;
5507;SDS011;2776;51.046;6.772;2023-02-28T05:47:35;5.17;;;2.03;;
5507;SDS011;2776;51.046;6.772;2023-02-28T05:50:04;3.83;;;2.20;;
5507;SDS011;2776;51.046;6.772;2023-02-28T05:52:31;3.07;;;2.30;;
5507;SDS011;2776;51.046;6.772;2023-02-28T05:54:58;2.60;;;1.80;;
5507;SDS011;2776;51.046;6.772;2023-02-28T05:57:25;3.97;;;2.50;;
5507;SDS011;2776;51.046;6.772;2023-02-28T05:59:52;2.30;;;1.93;;
5507;SDS011;2776;51.046;6.772;2023-02-28T06:02:18;3.07;;;2.03;;
5507;SDS011;2776;51.046;6.772;2023-02-28T06:04:45;1.90;;;1.70;;
5507;SDS011;2776;51.046;6.772;2023-02-28T06:07:13;1.80;;;1.70;;
5507;SDS011;2776;51.046;6.772;2023-02-28T06:09:42;4.53;;;2.00;;
5507;SDS011;2776;51.046;6.772;2023-02-28T06:12:09;1.97;;;1.77;;
5507;SDS011;2776;51.046;6.772;2023-02-28T06:14:36;2.90;;;2.03;;
5507;SDS011;2776;51.046;6.772;2023-02-28T06:17:03;3.13;;;2.03;;
5507;SDS011;2776;51.046;6.772;2023-02-28T06:19:30;2.60;;;1.70;;
5507;SDS011;2776;51.046;6.772;2023-02-28T06:21:57;3.07;;;2.17;;
5507;SDS011;2776;51.046;6.772;2023-02-28T06:24:26;3.30;;;2.03;;
5507;SDS011;2776;51.046;6.772;2023-02-28T06:26:54;2.17;;;1.90;;
5507;SDS011;2776;51.046;6.772;2023-02-28T06:29:20;2.20;;;1.90;;
5507;SDS011;2776;51.046;6.772;2023-02-28T06:31:47;1.90;;;1.63;;
5507;SDS011;2776;51.046;6.772;2023-02-28T06:34:15;3.53;;;2.10;;
5507;SDS011;2776;51.046;6.772;2023-02-28T06:36:43;3.07;;;1.80;;
5507;SDS011;2776;51.046;6.772;2023-02-28T06:39:09;3.03;;;2.10;;
5507;SDS011;2776;51.046;6.772;2023-02-28T06:41:37;2.03;;;1.83;;
5507;SDS011;2776;51.046;6.772;2023-02-28T06:44:05;2.30;;;2.10;;
5507;SDS011;2776;51.046;6.772;2023-02-28T06:46:38;2.73;;;1.93;;
5507;SDS011;2776;51.046;6.772;2023-02-28T06:49:05;2.73;;;1.93;;
5507;SDS011;2776;51.046;6.772;2023-02-28T06:51:34;2.63;;;2.20;;
5507;SDS011;2776;51.046;6.772;2023-02-28T06:54:02;3.00;;;2.40;;
5507;SDS011;2776;51.046;6.772;2023-02-28T06:56:29;2.53;;;2.00;;
5507;SDS011;2776;51.046;6.772;2023-02-28T06:58:57;2.17;;;1.80;;
5507;SDS011;2776;51.046;6.772;2023-02-28T07:01:24;1.83;;;1.70;;
5507;SDS011;2776;51.046;6.772;2023-02-28T07:03:50;1.63;;;1.53;;
5507;SDS011;2776;51.046;6.772;2023-02-28T07:06:18;2.13;;;1.90;;
5507;SDS011;2776;51.046;6.772;2023-02-28T07:08:47;2.63;;;1.80;;
5507;SDS011;2776;51.046;6.772;2023-02-28T07:11:14;1.50;;;1.40;;
5507;SDS011;2776;51.046;6.772;2023-02-28T07:13:41;2.23;;;1.77;;
5507;SDS011;2776;51.046;6.772;2023-02-28T07:16:10;2.97;;;2.03;;
5507;SDS011;2776;51.046;6.772;2023-02-28T07:18:37;1.60;;;1.50;;
5507;SDS011;2776;51.046;6.772;2023-02-28T07:21:04;2.67;;;1.60;;
5507;SDS011;2776;51.046;6.772;2023-02-28T07:23:34;3.70;;;2.00;;
5507;SDS011;2776;51.046;6.772;2023-02-28T07:26:03;3.20;;;1.63;;
5507;SDS011;2776;51.046;6.772;2023-02-28T07:28:30;2.10;;;1.60;;
5507;SDS011;2776;51.046;6.772;2023-02-28T07:30:57;1.70;;;1.60;;
5507;SDS011;2776;51.046;6.772;2023-02-28T07:33:30;1.70;;;1.60;;
5507;SDS011;2776;51.046;6.772;2023-02-28T07:35:59;1.47;;;1.37;;
5507;SDS011;2776;51.046;6.772;2023-02-28T07:38:27;1.37;;;1.23;;
5507;SDS011;2776;51.046;6.772;2023-02-28T07:40:53;1.80;;;1.20;;
5507;SDS011;2776;51.046;6.772;2023-02-28T07:43:20;2.33;;;1.47;;
5507;SDS011;2776;51.046;6.772;2023-02-28T07:45:47;1.60;;;1.10;;
5507;SDS011;2776;51.046;6.772;2023-02-28T07:48:14;1.70;;;1.03;;
5507;SDS011;2776;51.046;6.772;2023-02-28T07:50:42;2.00;;;1.43;;
5507;SDS011;2776;51.046;6.772;2023-02-28T07:53:08;1.30;;;1.20;;
5507;SDS011;2776;51.046;6.772;2023-02-28T07:55:35;3.43;;;1.30;;
5507;SDS011;2776;51.046;6.772;2023-02-28T07:58:02;1.30;;;1.20;;
5507;SDS011;2776;51.046;6.772;2023-02-28T08:00:29;1.47;;;1.13;;
5507;SDS011;2776;51.046;6.772;2023-02-28T08:02:56;2.90;;;1.20;;
5507;SDS011;2776;51.046;6.772;2023-02-28T08:05:24;1.20;;;1.10;;
5507;SDS011;2776;51.046;6.772;2023-02-28T08:07:52;1.37;;;1.27;;
5507;SDS011;2776;51.046;6.772;2023-02-28T08:10:19;2.30;;;1.47;;
5507;SDS011;2776;51.046;6.772;2023-02-28T08:12:46;1.53;;;1.43;;
5507;SDS011;2776;51.046;6.772;2023-02-28T08:15:13;1.40;;;1.20;;
5507;SDS011;2776;51.046;6.772;2023-02-28T08:17:39;1.83;;;1.33;;
5507;SDS011;2776;51.046;6.772;2023-02-28T08:20:07;1.53;;;1.43;;
5507;SDS011;2776;51.046;6.772;2023-02-28T08:22:35;2.17;;;1.33;;
5507;SDS011;2776;51.046;6.772;2023-02-28T08:25:03;1.40;;;1.30;;
5507;SDS011;2776;51.046;6.772;2023-02-28T08:27:32;1.27;;;1.17;;
5507;SDS011;2776;51.046;6.772;2023-02-28T08:29:59;2.67;;;1.53;;
5507;SDS011;2776;51.046;6.772;2023-02-28T08:32:25;1.70;;;1.60;;
5507;SDS011;2776;51.046;6.772;2023-02-28T08:34:52;1.43;;;1.27;;
5507;SDS011;2776;51.046;6.772;2023-02-28T08:37:19;1.07;;;1.03;;
5507;SDS011;2776;51.046;6.772;2023-02-28T08:39:46;1.60;;;1.30;;
5507;SDS011;2776;51.046;6.772;2023-02-28T08:42:14;2.27;;;2.07;;
5507;SDS011;2776;51.046;6.772;2023-02-28T08:44:41;1.87;;;1.37;;
5507;SDS011;2776;51.046;6.772;2023-02-28T08:47:07;2.47;;;1.30;;
5507;SDS011;2776;51.046;6.772;2023-02-28T08:49:34;1.80;;;1.50;;
5507;SDS011;2776;51.046;6.772;2023-02-28T08:52:02;3.27;;;1.47;;
5507;SDS011;2776;51.046;6.772;2023-02-28T08:54:29;1.50;;;1.40;;
5507;SDS011;2776;51.046;6.772;2023-02-28T08:56:57;2.00;;;1.77;;
5507;SDS011;2776;51.046;6.772;2023-02-28T08:59:25;1.63;;;1.53;;
5507;SDS011;2776;51.046;6.772;2023-02-28T09:01:51;2.60;;;1.60;;
5507;SDS011;2776;51.046;6.772;2023-02-28T09:04:18;1.60;;;1.20;;
5507;SDS011;2776;51.046;6.772;2023-02-28T09:06:45;1.23;;;1.00;;
5507;SDS011;2776;51.046;6.772;2023-02-28T09:09:13;1.47;;;1.30;;
5507;SDS011;2776;51.046;6.772;2023-02-28T09:11:40;2.47;;;1.13;;
5507;SDS011;2776;51.046;6.772;2023-02-28T09:14:07;1.70;;;1.10;;
5507;SDS011;2776;51.046;6.772;2023-02-28T09:16:35;1.40;;;1.30;;
5507;SDS011;2776;51.046;6.772;2023-02-28T09:19:02;1.40;;;1.10;;
5507;SDS011;2776;51.046;6.772;2023-02-28T09:21:29;1.30;;;1.13;;
5507;SDS011;2776;51.046;6.772;2023-02-28T09:23:55;1.93;;;1.40;;
5507;SDS011;2776;51.046;6.772;2023-02-28T09:26:23;1.50;;;1.07;;
5507;SDS011;2776;51.046;6.772;2023-02-28T09:28:52;2.83;;;1.40;;
5507;SDS011;2776;51.046;6.772;2023-02-28T09:31:21;1.63;;;1.07;;
5507;SDS011;2776;51.046;6.772;2023-02-28T09:33:50;1.50;;;1.30;;
5507;SDS011;2776;51.046;6.772;2023-02-28T09:36:18;1.63;;;0.90;;
5507;SDS011;2776;51.046;6.772;2023-02-28T09:38:45;1.07;;;0.97;;
5507;SDS011;2776;51.046;6.772;2023-02-28T09:41:13;2.77;;;1.33;;
5507;SDS011;2776;51.046;6.772;2023-02-28T09:43:43;2.47;;;1.33;;
5507;SDS011;2776;51.046;6.772;2023-02-28T09:46:24;2.03;;;1.27;;
5507;SDS011;2776;51.046;6.772;2023-02-28T09:48:59;1.13;;;1.07;;
5507;SDS011;2776;51.046;6.772;2023-02-28T09:51:33;1.03;;;0.93;;
5507;SDS011;2776;51.046;6.772;2023-02-28T09:54:05;1.70;;;1.60;;
5507;SDS011;2776;51.046;6.772;2023-02-28T09:56:36;1.63;;;1.00;;
5507;SDS011;2776;51.046;6.772;2023-02-28T09:59:05;1.90;;;1.53;;
5507;SDS011;2776;51.046;6.772;2023-02-28T10:01:41;1.30;;;1.20;;
5507;SDS011;2776;51.046;6.772;2023-02-28T10:04:16;1.60;;;1.10;;
5507;SDS011;2776;51.046;6.772;2023-02-28T10:06:54;2.00;;;1.30;;
5507;SDS011;2776;51.046;6.772;2023-02-28T10:09:23;1.20;;;1.10;;
5507;SDS011;2776;51.046;6.772;2023-02-28T10:11:54;1.60;;;1.33;;
5507;SDS011;2776;51.046;6.772;2023-02-28T10:14:26;1.73;;;1.43;;
5507;SDS011;2776;51.046;6.772;2023-02-28T10:16:55;1.23;;;1.10;;
5507;SDS011;2776;51.046;6.772;2023-02-28T10:19:28;1.20;;;1.10;;
5507;SDS011;2776;51.046;6.772;2023-02-28T10:22:01;1.50;;;1.10;;
5507;SDS011;2776;51.046;6.772;2023-02-28T10:24:35;1.50;;;1.40;;
5507;SDS011;2776;51.046;6.772;2023-02-28T10:27:06;2.10;;;1.53;;
5507;SDS011;2776;51.046;6.772;2023-02-28T10:29:40;1.70;;;1.10;;
5507;SDS011;2776;51.046;6.772;2023-02-28T10:32:10;0.90;;;0.90;;
5507;SDS011;2776;51.046;6.772;2023-02-28T10:34:44;1.40;;;1.30;;
5507;SDS011;2776;51.046;6.772;2023-02-28T10:37:16;1.87;;;1.33;;
5507;SDS011;2776;51.046;6.772;2023-02-28T10:39:44;1.60;;;1.10;;
5507;SDS011;2776;51.046;6.772;2023-02-28T10:42:20;1.50;;;1.40;;
5507;SDS011;2776;51.046;6.772;2023-02-28T10:45:01;1.30;;;1.20;;
5507;SDS011;2776;51.046;6.772;2023-02-28T10:47:32;1.40;;;1.23;;
5507;SDS011;2776;51.046;6.772;2023-02-28T10:50:03;1.30;;;1.20;;
5507;SDS011;2776;51.046;6.772;2023-02-28T10:52:33;1.40;;;1.30;;
5507;SDS011;2776;51.046;6.772;2023-02-28T10:55:14;1.90;;;1.20;;
5507;SDS011;2776;51.046;6.772;2023-02-28T10:57:45;2.93;;;1.30;;
5507;SDS011;2776;51.046;6.772;2023-02-28T11:00:14;1.63;;;1.53;;
5507;SDS011;2776;51.046;6.772;2023-02-28T11:02:42;1.40;;;1.30;;
5507;SDS011;2776;51.046;6.772;2023-02-28T11:05:27;1.30;;;1.20;;
5507;SDS011;2776;51.046;6.772;2023-02-28T11:07:56;1.50;;;1.23;;
5507;SDS011;2776;51.046;6.772;2023-02-28T11:10:26;1.20;;;1.10;;
5507;SDS011;2776;51.046;6.772;2023-02-28T11:12:59;1.90;;;1.20;;
5507;SDS011;2776;51.046;6.772;2023-02-28T11:15:27;2.37;;;1.50;;
5507;SDS011;2776;51.046;6.772;2023-02-28T11:17:56;1.90;;;1.60;;
5507;SDS011;2776;51.046;6.772;2023-02-28T11:20:27;1.73;;;1.27;;
5507;SDS011;2776;51.046;6.772;2023-02-28T11:22:56;1.63;;;1.20;;
5507;SDS011;2776;51.046;6.772;2023-02-28T11:25:26;1.43;;;1.30;;
5507;SDS011;2776;51.046;6.772;2023-02-28T11:27:56;1.50;;;1.40;;
5507;SDS011;2776;51.046;6.772;2023-02-28T11:30:27;2.33;;;1.90;;
5507;SDS011;2776;51.046;6.772;2023-02-28T11:32:58;1.63;;;1.43;;
5507;SDS011;2776;51.046;6.772;2023-02-28T11:35:28;1.70;;;1.40;;
5507;SDS011;2776;51.046;6.772;2023-02-28T11:37:59;2.60;;;1.70;;
5507;SDS011;2776;51.046;6.772;2023-02-28T11:40:30;2.60;;;1.67;;
5507;SDS011;2776;51.046;6.772;2023-02-28T11:43:08;1.63;;;1.53;;
5507;SDS011;2776;51.046;6.772;2023-02-28T11:45:51;2.33;;;1.70;;
5507;SDS011;2776;51.046;6.772;2023-02-28T11:48:41;1.67;;;1.57;;
5507;SDS011;2776;51.046;6.772;2023-02-28T11:51:21;1.60;;;1.50;;
5507;SDS011;2776;51.046;6.772;2023-02-28T11:54:08;1.77;;;1.67;;
5507;SDS011;2776;51.046;6.772;2023-02-28T11:57:03;1.30;;;1.20;;
5507;SDS011;2776;51.046;6.772;2023-02-28T11:59:45;1.80;;;1.70;;
5507;SDS011;2776;51.046;6.772;2023-02-28T12:02:26;1.33;;;1.23;;
5507;SDS011;2776;51.046;6.772;2023-02-28T12:05:01;2.00;;;1.80;;
5507;SDS011;2776;51.046;6.772;2023-02-28T12:07:53;1.60;;;1.50;;
5507;SDS011;2776;51.046;6.772;2023-02-28T12:10:29;1.70;;;1.60;;
5507;SDS011;2776;51.046;6.772;2023-02-28T12:13:05;2.63;;;1.87;;
5507;SDS011;2776;51.046;6.772;2023-02-28T12:18:45;3.53;;;1.67;;
5507;SDS011;2776;51.046;6.772;2023-02-28T12:21:21;2.67;;;1.60;;
5507;SDS011;2776;51.046;6.772;2023-02-28T12:24:01;2.07;;;1.73;;
5507;SDS011;2776;51.046;6.772;2023-02-28T12:26:43;1.70;;;1.60;;
5507;SDS011;2776;51.046;6.772;2023-02-28T12:29:14;1.80;;;1.70;;
5507;SDS011;2776;51.046;6.772;2023-02-28T12:31:46;1.87;;;1.77;;
5507;SDS011;2776;51.046;6.772;2023-02-28T12:34:17;2.23;;;2.03;;
5507;SDS011;2776;51.046;6.772;2023-02-28T12:36:47;2.40;;;1.70;;
5507;SDS011;2776;51.046;6.772;2023-02-28T12:39:20;2.00;;;1.80;;
5507;SDS011;2776;51.046;6.772;2023-02-28T12:41:53;2.27;;;1.50;;
5507;SDS011;2776;51.046;6.772;2023-02-28T12:44:26;1.70;;;1.60;;
5507;SDS011;2776;51.046;6.772;2023-02-28T12:46:58;1.60;;;1.50;;
5507;SDS011;2776;51.046;6.772;2023-02-28T12:49:30;2.27;;;1.70;;
5507;SDS011;2776;51.046;6.772;2023-02-28T12:52:00;2.70;;;1.90;;
5507;SDS011;2776;51.046;6.772;2023-02-28T12:54:31;2.30;;;1.83;;
5507;SDS011;2776;51.046;6.772;2023-02-28T12:57:02;1.53;;;1.43;;
5507;SDS011;2776;51.046;6.772;2023-02-28T12:59:37;2.67;;;2.00;;
5507;SDS011;2776;51.046;6.772;2023-02-28T13:05:45;2.17;;;1.90;;
5507;SDS011;2776;51.046;6.772;2023-02-28T13:08:37;1.87;;;1.73;;
5507;SDS011;2776;51.046;6.772;2023-02-28T13:11:38;2.03;;;1.83;;
5507;SDS011;2776;51.046;6.772;2023-02-28T13:14:13;2.07;;;1.87;;
5507;SDS011;2776;51.046;6.772;2023-02-28T13:16:51;3.17;;;1.83;;
5507;SDS011;2776;51.046;6.772;2023-02-28T13:19:22;2.60;;;1.67;;
5507;SDS011;2776;51.046;6.772;2023-02-28T13:21:51;2.27;;;2.07;;
5507;SDS011;2776;51.046;6.772;2023-02-28T13:33:19;3.60;;;2.13;;
5507;SDS011;2776;51.046;6.772;2023-02-28T13:35:51;2.10;;;1.90;;
5507;SDS011;2776;51.046;6.772;2023-02-28T13:38:34;1.70;;;1.60;;
5507;SDS011;2776;51.046;6.772;2023-02-28T13:44:22;1.87;;;1.77;;
5507;SDS011;2776;51.046;6.772;2023-02-28T13:49:47;1.93;;;1.73;;
5507;SDS011;2776;51.046;6.772;2023-02-28T13:52:16;2.27;;;1.80;;
5507;SDS011;2776;51.046;6.772;2023-02-28T13:54:51;2.00;;;1.80;;
5507;SDS011;2776;51.046;6.772;2023-02-28T13:57:41;1.70;;;1.60;;
5507;SDS011;2776;51.046;6.772;2023-02-28T14:00:22;1.67;;;1.57;;
5507;SDS011;2776;51.046;6.772;2023-02-28T14:03:16;2.93;;;1.67;;
5507;SDS011;2776;51.046;6.772;2023-02-28T14:08:46;3.20;;;2.00;;
5507;SDS011;2776;51.046;6.772;2023-02-28T14:11:30;2.13;;;1.80;;
5507;SDS011;2776;51.046;6.772;2023-02-28T14:13:58;1.80;;;1.63;;
5507;SDS011;2776;51.046;6.772;2023-02-28T14:16:27;2.03;;;1.83;;
5507;SDS011;2776;51.046;6.772;2023-02-28T14:19:03;3.17;;;1.97;;
5507;SDS011;2776;51.046;6.772;2023-02-28T14:21:38;3.50;;;1.73;;
5507;SDS011;2776;51.046;6.772;2023-02-28T14:30:24;1.90;;;1.70;;
5507;SDS011;2776;51.046;6.772;2023-02-28T14:33:22;2.03;;;1.80;;
5507;SDS011;2776;51.046;6.772;2023-02-28T14:38:41;1.93;;;1.80;;
5507;SDS011;2776;51.046;6.772;2023-02-28T14:41:14;1.90;;;1.80;;
5507;SDS011;2776;51.046;6.772;2023-02-28T14:43:48;2.20;;;1.70;;
5507;SDS011;2776;51.046;6.772;2023-02-28T14:46:17;1.57;;;1.47;;
5507;SDS011;2776;51.046;6.772;2023-02-28T14:48:46;2.17;;;1.83;;
5507;SDS011;2776;51.046;6.772;2023-02-28T14:51:18;2.00;;;1.83;;
5507;SDS011;2776;51.046;6.772;2023-02-28T14:53:47;3.80;;;2.13;;
5507;SDS011;2776;51.046;6.772;2023-02-28T14:56:21;3.97;;;3.00;;
5507;SDS011;2776;51.046;6.772;2023-02-28T14:58:51;1.83;;;1.70;;
5507;SDS011;2776;51.046;6.772;2023-02-28T15:01:19;3.20;;;2.20;;
5507;SDS011;2776;51.046;6.772;2023-02-28T15:03:49;2.90;;;2.10;;
5507;SDS011;2776;51.046;6.772;2023-02-28T15:06:24;3.03;;;1.73;;
5507;SDS011;2776;51.046;6.772;2023-02-28T15:11:33;2.20;;;2.00;;
5507;SDS011;2776;51.046;6.772;2023-02-28T15:14:01;3.03;;;2.47;;
5507;SDS011;2776;51.046;6.772;2023-02-28T15:16:29;2.77;;;1.90;;
5507;SDS011;2776;51.046;6.772;2023-02-28T15:19:02;7.30;;;5.30;;
5507;SDS011;2776;51.046;6.772;2023-02-28T15:21:32;7.80;;;5.50;;
5507;SDS011;2776;51.046;6.772;2023-02-28T15:24:07;5.63;;;3.90;;
5507;SDS011;2776;51.046;6.772;2023-02-28T15:26:41;3.17;;;2.50;;
5507;SDS011;2776;51.046;6.772;2023-02-28T15:29:12;2.60;;;1.77;;
5507;SDS011;2776;51.046;6.772;2023-02-28T15:31:42;2.10;;;1.90;;
5507;SDS011;2776;51.046;6.772;2023-02-28T15:34:16;2.00;;;1.80;;
5507;SDS011;2776;51.046;6.772;2023-02-28T15:36:46;1.97;;;1.70;;
5507;SDS011;2776;51.046;6.772;2023-02-28T15:39:20;2.40;;;1.80;;
5507;SDS011;2776;51.046;6.772;2023-02-28T15:41:48;2.27;;;1.80;;
5507;SDS011;2776;51.046;6.772;2023-02-28T15:44:16;3.00;;;2.00;;
5507;SDS011;2776;51.046;6.772;2023-02-28T15:46:53;2.73;;;2.40;;
5507;SDS011;2776;51.046;6.772;2023-02-28T15:49:24;3.67;;;2.30;;
5507;SDS011;2776;51.046;6.772;2023-02-28T15:51:52;2.17;;;1.77;;
5507;SDS011;2776;51.046;6.772;2023-02-28T15:54:21;2.67;;;2.07;;
5507;SDS011;2776;51.046;6.772;2023-02-28T15:56:52;2.10;;;1.70;;
5507;SDS011;2776;51.046;6.772;2023-02-28T15:59:22;2.30;;;1.80;;
5507;SDS011;2776;51.046;6.772;2023-02-28T16:02:02;2.10;;;1.90;;
5507;SDS011;2776;51.046;6.772;2023-02-28T16:07:22;1.97;;;1.77;;
5507;SDS011;2776;51.046;6.772;2023-02-28T16:09:50;2.80;;;2.03;;
5507;SDS011;2776;51.046;6.772;2023-02-28T16:12:16;1.90;;;1.67;;
5507;SDS011;2776;51.046;6.772;2023-02-28T16:14:44;2.57;;;1.83;;
5507;SDS011;2776;51.046;6.772;2023-02-28T16:17:15;2.43;;;2.00;;
5507;SDS011;2776;51.046;6.772;2023-02-28T16:19:46;2.10;;;1.80;;
5507;SDS011;2776;51.046;6.772;2023-02-28T16:22:14;3.50;;;2.37;;
5507;SDS011;2776;51.046;6.772;2023-02-28T16:24:40;3.13;;;2.03;;
5507;SDS011;2776;51.046;6.772;2023-02-28T16:27:09;2.13;;;1.83;;
5507;SDS011;2776;51.046;6.772;2023-02-28T16:29:43;1.80;;;1.70;;
5507;SDS011;2776;51.046;6.772;2023-02-28T16:32:11;2.20;;;2.00;;
5507;SDS011;2776;51.046;6.772;2023-02-28T16:34:40;2.43;;;1.80;;